sensor_id;sensor_type;location;lat;lon;timestamp;P1;durP1;ratioP1;P2;durP2;ratioP2
28070;SDS011;15383;48.408;9.968;2024-02-16T00:00:08;11.60;;;4.57;;
28070;SDS011;15383;48.408;9.968;2024-02-16T00:02:36;8.88;;;3.95;;
28070;SDS011;15383;48.408;9.968;2024-02-16T00:05:02;9.63;;;4.60;;
28070;SDS011;15383;48.408;9.968;2024-02-16T00:07:30;7.20;;;3.90;;
28070;SDS011;15383;48.408;9.968;2024-02-16T00:09:55;8.63;;;4.22;;
28070;SDS011;15383;48.408;9.968;2024-02-16T00:12:21;5.55;;;3.80;;
28070;SDS011;15383;48.408;9.968;2024-02-16T00:14:47;8.65;;;4.22;;
28070;SDS011;15383;48.408;9.968;2024-02-16T00:17:12;8.82;;;4.38;;
28070;SDS011;15383;48.408;9.968;2024-02-16T00:19:38;7.35;;;4.07;;
28070;SDS011;15383;48.408;9.968;2024-02-16T00:22:04;6.38;;;3.67;;
28070;SDS011;15383;48.408;9.968;2024-02-16T00:24:32;7.50;;;4.00;;
28070;SDS011;15383;48.408;9.968;2024-02-16T00:26:58;7.35;;;3.80;;
28070;SDS011;15383;48.408;9.968;2024-02-16T00:29:25;10.13;;;4.43;;
28070;SDS011;15383;48.408;9.968;2024-02-16T00:31:50;9.25;;;4.50;;
28070;SDS011;15383;48.408;9.968;2024-02-16T00:34:16;6.07;;;4.38;;
28070;SDS011;15383;48.408;9.968;2024-02-16T00:36:42;7.22;;;4.40;;
28070;SDS011;15383;48.408;9.968;2024-02-16T00:39:07;6.72;;;4.03;;
28070;SDS011;15383;48.408;9.968;2024-02-16T00:41:33;9.38;;;4.25;;
28070;SDS011;15383;48.408;9.968;2024-02-16T00:43:59;8.10;;;4.03;;
28070;SDS011;15383;48.408;9.968;2024-02-16T00:46:25;8.88;;;4.07;;
28070;SDS011;15383;48.408;9.968;2024-02-16T00:48:51;8.40;;;4.57;;
28070;SDS011;15383;48.408;9.968;2024-02-16T00:51:17;8.30;;;4.05;;
28070;SDS011;15383;48.408;9.968;2024-02-16T00:53:42;10.48;;;4.38;;
28070;SDS011;15383;48.408;9.968;2024-02-16T00:56:08;7.13;;;4.00;;
28070;SDS011;15383;48.408;9.968;2024-02-16T00:58:35;10.32;;;3.85;;
28070;SDS011;15383;48.408;9.968;2024-02-16T01:01:01;10.23;;;4.30;;
28070;SDS011;15383;48.408;9.968;2024-02-16T01:03:28;8.27;;;4.75;;
28070;SDS011;15383;48.408;9.968;2024-02-16T01:05:54;14.30;;;4.45;;
28070;SDS011;15383;48.408;9.968;2024-02-16T01:08:19;6.95;;;3.88;;
28070;SDS011;15383;48.408;9.968;2024-02-16T01:10:45;10.52;;;3.67;;
28070;SDS011;15383;48.408;9.968;2024-02-16T01:13:12;6.22;;;4.07;;
28070;SDS011;15383;48.408;9.968;2024-02-16T01:15:37;6.88;;;3.40;;
28070;SDS011;15383;48.408;9.968;2024-02-16T01:18:04;7.28;;;3.50;;
28070;SDS011;15383;48.408;9.968;2024-02-16T01:20:29;8.00;;;4.18;;
28070;SDS011;15383;48.408;9.968;2024-02-16T01:22:56;6.88;;;4.00;;
28070;SDS011;15383;48.408;9.968;2024-02-16T01:25:22;9.45;;;3.45;;
28070;SDS011;15383;48.408;9.968;2024-02-16T01:27:48;7.20;;;3.90;;
28070;SDS011;15383;48.408;9.968;2024-02-16T01:30:13;8.57;;;4.45;;
28070;SDS011;15383;48.408;9.968;2024-02-16T01:32:40;5.35;;;3.75;;
28070;SDS011;15383;48.408;9.968;2024-02-16T01:35:06;7.72;;;3.60;;
28070;SDS011;15383;48.408;9.968;2024-02-16T01:37:32;7.05;;;4.22;;
28070;SDS011;15383;48.408;9.968;2024-02-16T01:39:57;8.18;;;4.10;;
28070;SDS011;15383;48.408;9.968;2024-02-16T01:42:23;8.88;;;4.32;;
28070;SDS011;15383;48.408;9.968;2024-02-16T01:44:49;7.55;;;4.10;;
28070;SDS011;15383;48.408;9.968;2024-02-16T01:47:15;7.18;;;4.25;;
28070;SDS011;15383;48.408;9.968;2024-02-16T01:49:41;6.75;;;3.85;;
28070;SDS011;15383;48.408;9.968;2024-02-16T01:52:07;5.78;;;3.88;;
28070;SDS011;15383;48.408;9.968;2024-02-16T01:54:33;7.68;;;3.85;;
28070;SDS011;15383;48.408;9.968;2024-02-16T01:56:59;8.27;;;3.83;;
28070;SDS011;15383;48.408;9.968;2024-02-16T01:59:26;9.25;;;4.18;;
28070;SDS011;15383;48.408;9.968;2024-02-16T02:01:52;6.57;;;4.05;;
28070;SDS011;15383;48.408;9.968;2024-02-16T02:04:17;7.15;;;3.92;;
28070;SDS011;15383;48.408;9.968;2024-02-16T02:06:44;7.95;;;3.72;;
28070;SDS011;15383;48.408;9.968;2024-02-16T02:09:10;6.03;;;3.78;;
28070;SDS011;15383;48.408;9.968;2024-02-16T02:11:36;5.20;;;3.50;;
28070;SDS011;15383;48.408;9.968;2024-02-16T02:14:02;7.03;;;3.78;;
28070;SDS011;15383;48.408;9.968;2024-02-16T02:16:28;12.77;;;4.85;;
28070;SDS011;15383;48.408;9.968;2024-02-16T02:18:54;7.47;;;3.70;;
28070;SDS011;15383;48.408;9.968;2024-02-16T02:21:19;4.93;;;3.38;;
28070;SDS011;15383;48.408;9.968;2024-02-16T02:23:45;6.72;;;3.45;;
28070;SDS011;15383;48.408;9.968;2024-02-16T02:26:13;9.25;;;3.80;;
28070;SDS011;15383;48.408;9.968;2024-02-16T02:31:07;6.43;;;3.35;;
28070;SDS011;15383;48.408;9.968;2024-02-16T02:33:34;5.85;;;3.50;;
28070;SDS011;15383;48.408;9.968;2024-02-16T02:36:00;9.85;;;4.22;;
28070;SDS011;15383;48.408;9.968;2024-02-16T02:38:25;6.25;;;3.65;;
28070;SDS011;15383;48.408;9.968;2024-02-16T02:40:52;9.88;;;3.58;;
28070;SDS011;15383;48.408;9.968;2024-02-16T02:43:17;11.40;;;4.05;;
28070;SDS011;15383;48.408;9.968;2024-02-16T02:45:44;7.68;;;3.63;;
28070;SDS011;15383;48.408;9.968;2024-02-16T02:48:10;13.25;;;4.00;;
28070;SDS011;15383;48.408;9.968;2024-02-16T02:50:35;5.35;;;3.55;;
28070;SDS011;15383;48.408;9.968;2024-02-16T02:53:01;9.07;;;3.58;;
28070;SDS011;15383;48.408;9.968;2024-02-16T02:55:26;7.15;;;4.00;;
28070;SDS011;15383;48.408;9.968;2024-02-16T02:57:52;6.28;;;4.25;;
28070;SDS011;15383;48.408;9.968;2024-02-16T03:00:17;6.00;;;4.03;;
28070;SDS011;15383;48.408;9.968;2024-02-16T03:02:43;6.63;;;4.03;;
28070;SDS011;15383;48.408;9.968;2024-02-16T03:05:09;7.13;;;3.30;;
28070;SDS011;15383;48.408;9.968;2024-02-16T03:07:36;8.95;;;3.75;;
28070;SDS011;15383;48.408;9.968;2024-02-16T03:10:02;6.75;;;3.80;;
28070;SDS011;15383;48.408;9.968;2024-02-16T03:12:28;4.53;;;3.28;;
28070;SDS011;15383;48.408;9.968;2024-02-16T03:14:54;6.25;;;3.70;;
28070;SDS011;15383;48.408;9.968;2024-02-16T03:17:20;5.78;;;3.90;;
28070;SDS011;15383;48.408;9.968;2024-02-16T03:19:45;7.88;;;3.60;;
28070;SDS011;15383;48.408;9.968;2024-02-16T03:22:11;7.63;;;3.92;;
28070;SDS011;15383;48.408;9.968;2024-02-16T03:24:37;9.98;;;4.15;;
28070;SDS011;15383;48.408;9.968;2024-02-16T03:27:03;10.70;;;4.32;;
28070;SDS011;15383;48.408;9.968;2024-02-16T03:29:29;7.60;;;4.40;;
28070;SDS011;15383;48.408;9.968;2024-02-16T03:31:54;6.80;;;4.00;;
28070;SDS011;15383;48.408;9.968;2024-02-16T03:34:20;6.57;;;4.28;;
28070;SDS011;15383;48.408;9.968;2024-02-16T03:36:45;8.02;;;4.32;;
28070;SDS011;15383;48.408;9.968;2024-02-16T03:39:11;6.43;;;4.30;;
28070;SDS011;15383;48.408;9.968;2024-02-16T03:41:36;5.53;;;3.70;;
28070;SDS011;15383;48.408;9.968;2024-02-16T03:44:02;8.48;;;4.00;;
28070;SDS011;15383;48.408;9.968;2024-02-16T03:46:28;6.47;;;3.53;;
28070;SDS011;15383;48.408;9.968;2024-02-16T03:48:53;11.75;;;4.82;;
28070;SDS011;15383;48.408;9.968;2024-02-16T03:51:19;9.98;;;3.90;;
28070;SDS011;15383;48.408;9.968;2024-02-16T03:53:44;9.50;;;4.05;;
28070;SDS011;15383;48.408;9.968;2024-02-16T03:56:11;7.47;;;4.07;;
28070;SDS011;15383;48.408;9.968;2024-02-16T03:58:37;10.50;;;3.50;;
28070;SDS011;15383;48.408;9.968;2024-02-16T04:01:03;5.82;;;3.40;;
28070;SDS011;15383;48.408;9.968;2024-02-16T04:03:31;6.90;;;4.03;;
28070;SDS011;15383;48.408;9.968;2024-02-16T04:05:57;9.48;;;4.18;;
28070;SDS011;15383;48.408;9.968;2024-02-16T04:08:24;9.38;;;3.85;;
28070;SDS011;15383;48.408;9.968;2024-02-16T04:10:50;6.00;;;3.92;;
28070;SDS011;15383;48.408;9.968;2024-02-16T04:13:15;6.53;;;3.72;;
28070;SDS011;15383;48.408;9.968;2024-02-16T04:15:41;7.65;;;3.67;;
28070;SDS011;15383;48.408;9.968;2024-02-16T04:18:07;4.18;;;3.30;;
28070;SDS011;15383;48.408;9.968;2024-02-16T04:20:32;8.05;;;3.55;;
28070;SDS011;15383;48.408;9.968;2024-02-16T04:22:58;9.35;;;3.45;;
28070;SDS011;15383;48.408;9.968;2024-02-16T04:25:23;6.60;;;3.58;;
28070;SDS011;15383;48.408;9.968;2024-02-16T04:27:49;11.25;;;4.22;;
28070;SDS011;15383;48.408;9.968;2024-02-16T04:30:14;7.85;;;3.20;;
28070;SDS011;15383;48.408;9.968;2024-02-16T04:32:40;7.53;;;3.67;;
28070;SDS011;15383;48.408;9.968;2024-02-16T04:35:06;8.77;;;4.30;;
28070;SDS011;15383;48.408;9.968;2024-02-16T04:37:36;7.55;;;4.28;;
28070;SDS011;15383;48.408;9.968;2024-02-16T04:40:03;8.98;;;4.10;;
28070;SDS011;15383;48.408;9.968;2024-02-16T04:42:30;7.45;;;4.10;;
28070;SDS011;15383;48.408;9.968;2024-02-16T04:44:56;8.38;;;4.00;;
28070;SDS011;15383;48.408;9.968;2024-02-16T04:47:22;6.22;;;4.03;;
28070;SDS011;15383;48.408;9.968;2024-02-16T04:49:47;6.07;;;3.80;;
28070;SDS011;15383;48.408;9.968;2024-02-16T04:52:13;6.38;;;4.03;;
28070;SDS011;15383;48.408;9.968;2024-02-16T04:54:38;6.10;;;3.80;;
28070;SDS011;15383;48.408;9.968;2024-02-16T04:57:05;7.30;;;3.67;;
28070;SDS011;15383;48.408;9.968;2024-02-16T04:59:31;5.20;;;3.88;;
28070;SDS011;15383;48.408;9.968;2024-02-16T05:01:56;8.45;;;4.88;;
28070;SDS011;15383;48.408;9.968;2024-02-16T05:04:22;7.05;;;4.15;;
28070;SDS011;15383;48.408;9.968;2024-02-16T05:06:48;5.80;;;4.18;;
28070;SDS011;15383;48.408;9.968;2024-02-16T05:09:14;8.50;;;4.20;;
28070;SDS011;15383;48.408;9.968;2024-02-16T05:11:41;7.03;;;4.28;;
28070;SDS011;15383;48.408;9.968;2024-02-16T05:14:10;7.45;;;3.97;;
28070;SDS011;15383;48.408;9.968;2024-02-16T05:16:45;6.90;;;3.78;;
28070;SDS011;15383;48.408;9.968;2024-02-16T05:19:11;11.02;;;4.38;;
28070;SDS011;15383;48.408;9.968;2024-02-16T05:21:37;9.45;;;4.22;;
28070;SDS011;15383;48.408;9.968;2024-02-16T05:24:03;7.22;;;4.18;;
28070;SDS011;15383;48.408;9.968;2024-02-16T05:26:29;6.32;;;4.22;;
28070;SDS011;15383;48.408;9.968;2024-02-16T05:28:55;10.07;;;4.30;;
28070;SDS011;15383;48.408;9.968;2024-02-16T05:31:20;11.00;;;4.68;;
28070;SDS011;15383;48.408;9.968;2024-02-16T05:33:49;10.32;;;4.38;;
28070;SDS011;15383;48.408;9.968;2024-02-16T05:36:19;7.38;;;3.92;;
28070;SDS011;15383;48.408;9.968;2024-02-16T05:38:48;11.13;;;4.20;;
28070;SDS011;15383;48.408;9.968;2024-02-16T05:41:15;5.45;;;3.53;;
28070;SDS011;15383;48.408;9.968;2024-02-16T05:43:42;8.32;;;4.65;;
28070;SDS011;15383;48.408;9.968;2024-02-16T05:46:12;9.95;;;4.72;;
28070;SDS011;15383;48.408;9.968;2024-02-16T05:48:38;8.50;;;4.15;;
28070;SDS011;15383;48.408;9.968;2024-02-16T05:51:05;8.45;;;4.35;;
28070;SDS011;15383;48.408;9.968;2024-02-16T05:53:32;7.28;;;4.13;;
28070;SDS011;15383;48.408;9.968;2024-02-16T05:55:58;11.10;;;4.85;;
28070;SDS011;15383;48.408;9.968;2024-02-16T05:58:24;9.02;;;5.03;;
28070;SDS011;15383;48.408;9.968;2024-02-16T06:00:50;6.45;;;4.05;;
28070;SDS011;15383;48.408;9.968;2024-02-16T06:03:16;8.80;;;4.55;;
28070;SDS011;15383;48.408;9.968;2024-02-16T06:05:42;7.63;;;4.32;;
28070;SDS011;15383;48.408;9.968;2024-02-16T06:08:11;9.18;;;4.78;;
28070;SDS011;15383;48.408;9.968;2024-02-16T06:10:37;8.88;;;5.05;;
28070;SDS011;15383;48.408;9.968;2024-02-16T06:13:03;8.23;;;4.85;;
28070;SDS011;15383;48.408;9.968;2024-02-16T06:15:29;10.73;;;5.03;;
28070;SDS011;15383;48.408;9.968;2024-02-16T06:17:55;8.05;;;4.25;;
28070;SDS011;15383;48.408;9.968;2024-02-16T06:20:21;8.77;;;4.38;;
28070;SDS011;15383;48.408;9.968;2024-02-16T06:22:46;8.98;;;5.05;;
28070;SDS011;15383;48.408;9.968;2024-02-16T06:25:12;9.27;;;4.68;;
28070;SDS011;15383;48.408;9.968;2024-02-16T06:27:38;10.13;;;4.65;;
28070;SDS011;15383;48.408;9.968;2024-02-16T06:30:03;10.75;;;5.03;;
28070;SDS011;15383;48.408;9.968;2024-02-16T06:32:29;9.15;;;5.45;;
28070;SDS011;15383;48.408;9.968;2024-02-16T06:34:56;7.07;;;4.40;;
28070;SDS011;15383;48.408;9.968;2024-02-16T06:37:22;10.00;;;5.00;;
28070;SDS011;15383;48.408;9.968;2024-02-16T06:39:47;13.48;;;5.20;;
28070;SDS011;15383;48.408;9.968;2024-02-16T06:42:13;8.60;;;4.78;;
28070;SDS011;15383;48.408;9.968;2024-02-16T06:44:39;10.05;;;5.78;;
28070;SDS011;15383;48.408;9.968;2024-02-16T06:47:05;11.38;;;5.38;;
28070;SDS011;15383;48.408;9.968;2024-02-16T06:49:31;10.98;;;5.93;;
28070;SDS011;15383;48.408;9.968;2024-02-16T06:51:56;11.95;;;5.72;;
28070;SDS011;15383;48.408;9.968;2024-02-16T06:54:22;12.15;;;6.20;;
28070;SDS011;15383;48.408;9.968;2024-02-16T06:56:49;12.20;;;6.25;;
28070;SDS011;15383;48.408;9.968;2024-02-16T06:59:16;11.48;;;5.75;;
28070;SDS011;15383;48.408;9.968;2024-02-16T07:01:42;13.98;;;6.50;;
28070;SDS011;15383;48.408;9.968;2024-02-16T07:04:07;13.77;;;6.85;;
28070;SDS011;15383;48.408;9.968;2024-02-16T07:06:34;12.30;;;7.00;;
28070;SDS011;15383;48.408;9.968;2024-02-16T07:09:00;8.48;;;5.47;;
28070;SDS011;15383;48.408;9.968;2024-02-16T07:11:25;15.43;;;7.38;;
28070;SDS011;15383;48.408;9.968;2024-02-16T07:13:51;11.65;;;6.95;;
28070;SDS011;15383;48.408;9.968;2024-02-16T07:16:16;15.25;;;7.05;;
28070;SDS011;15383;48.408;9.968;2024-02-16T07:18:43;14.95;;;6.68;;
28070;SDS011;15383;48.408;9.968;2024-02-16T07:21:09;14.85;;;7.18;;
28070;SDS011;15383;48.408;9.968;2024-02-16T07:23:34;16.52;;;7.13;;
28070;SDS011;15383;48.408;9.968;2024-02-16T07:26:00;16.20;;;7.97;;
28070;SDS011;15383;48.408;9.968;2024-02-16T07:28:26;15.68;;;7.22;;
28070;SDS011;15383;48.408;9.968;2024-02-16T07:30:52;13.20;;;7.30;;
28070;SDS011;15383;48.408;9.968;2024-02-16T07:33:18;13.77;;;6.72;;
28070;SDS011;15383;48.408;9.968;2024-02-16T07:35:44;14.40;;;7.05;;
28070;SDS011;15383;48.408;9.968;2024-02-16T07:38:10;13.60;;;6.80;;
28070;SDS011;15383;48.408;9.968;2024-02-16T07:40:36;13.95;;;7.55;;
28070;SDS011;15383;48.408;9.968;2024-02-16T07:43:01;14.45;;;7.65;;
28070;SDS011;15383;48.408;9.968;2024-02-16T07:45:28;14.40;;;7.05;;
28070;SDS011;15383;48.408;9.968;2024-02-16T07:47:54;16.33;;;7.30;;
28070;SDS011;15383;48.408;9.968;2024-02-16T07:50:21;14.23;;;7.25;;
28070;SDS011;15383;48.408;9.968;2024-02-16T07:52:47;19.42;;;8.57;;
28070;SDS011;15383;48.408;9.968;2024-02-16T07:55:13;13.35;;;7.50;;
28070;SDS011;15383;48.408;9.968;2024-02-16T07:57:39;14.88;;;8.15;;
28070;SDS011;15383;48.408;9.968;2024-02-16T08:00:05;18.50;;;8.20;;
28070;SDS011;15383;48.408;9.968;2024-02-16T08:02:32;16.30;;;8.35;;
28070;SDS011;15383;48.408;9.968;2024-02-16T08:04:58;12.38;;;7.68;;
28070;SDS011;15383;48.408;9.968;2024-02-16T08:07:24;15.15;;;7.22;;
28070;SDS011;15383;48.408;9.968;2024-02-16T08:09:49;19.95;;;8.00;;
28070;SDS011;15383;48.408;9.968;2024-02-16T08:12:15;14.30;;;7.88;;
28070;SDS011;15383;48.408;9.968;2024-02-16T08:14:42;14.20;;;8.55;;
28070;SDS011;15383;48.408;9.968;2024-02-16T08:17:08;18.20;;;8.45;;
28070;SDS011;15383;48.408;9.968;2024-02-16T08:19:35;15.77;;;8.18;;
28070;SDS011;15383;48.408;9.968;2024-02-16T08:22:02;17.75;;;8.13;;
28070;SDS011;15383;48.408;9.968;2024-02-16T08:24:35;20.23;;;8.15;;
28070;SDS011;15383;48.408;9.968;2024-02-16T08:27:01;15.68;;;8.88;;
28070;SDS011;15383;48.408;9.968;2024-02-16T08:29:29;13.98;;;8.05;;
28070;SDS011;15383;48.408;9.968;2024-02-16T08:31:55;16.02;;;8.93;;
28070;SDS011;15383;48.408;9.968;2024-02-16T08:34:21;18.60;;;8.25;;
28070;SDS011;15383;48.408;9.968;2024-02-16T08:36:47;17.27;;;8.52;;
28070;SDS011;15383;48.408;9.968;2024-02-16T08:39:14;15.85;;;8.65;;
28070;SDS011;15383;48.408;9.968;2024-02-16T08:41:41;20.13;;;8.57;;
28070;SDS011;15383;48.408;9.968;2024-02-16T08:44:09;15.43;;;8.07;;
28070;SDS011;15383;48.408;9.968;2024-02-16T08:46:35;16.38;;;7.50;;
28070;SDS011;15383;48.408;9.968;2024-02-16T08:49:01;16.33;;;7.93;;
28070;SDS011;15383;48.408;9.968;2024-02-16T08:51:27;16.88;;;7.60;;
28070;SDS011;15383;48.408;9.968;2024-02-16T08:53:53;15.80;;;8.52;;
28070;SDS011;15383;48.408;9.968;2024-02-16T08:56:19;15.82;;;8.43;;
28070;SDS011;15383;48.408;9.968;2024-02-16T08:58:44;20.15;;;8.13;;
28070;SDS011;15383;48.408;9.968;2024-02-16T09:01:10;20.90;;;7.88;;
28070;SDS011;15383;48.408;9.968;2024-02-16T09:03:36;17.42;;;9.05;;
28070;SDS011;15383;48.408;9.968;2024-02-16T09:06:03;14.70;;;8.43;;
28070;SDS011;15383;48.408;9.968;2024-02-16T09:08:29;15.68;;;8.85;;
28070;SDS011;15383;48.408;9.968;2024-02-16T09:13:32;19.42;;;7.15;;
28070;SDS011;15383;48.408;9.968;2024-02-16T09:15:58;12.82;;;7.40;;
28070;SDS011;15383;48.408;9.968;2024-02-16T09:18:24;12.55;;;8.07;;
28070;SDS011;15383;48.408;9.968;2024-02-16T09:20:49;14.70;;;7.40;;
28070;SDS011;15383;48.408;9.968;2024-02-16T09:23:15;13.40;;;7.50;;
28070;SDS011;15383;48.408;9.968;2024-02-16T09:25:40;15.40;;;8.13;;
28070;SDS011;15383;48.408;9.968;2024-02-16T09:28:06;14.95;;;8.65;;
28070;SDS011;15383;48.408;9.968;2024-02-16T09:30:32;14.02;;;7.13;;
28070;SDS011;15383;48.408;9.968;2024-02-16T09:32:58;11.07;;;6.93;;
28070;SDS011;15383;48.408;9.968;2024-02-16T09:35:23;18.45;;;7.10;;
28070;SDS011;15383;48.408;9.968;2024-02-16T09:37:49;16.50;;;8.20;;
28070;SDS011;15383;48.408;9.968;2024-02-16T09:40:14;13.63;;;7.47;;
28070;SDS011;15383;48.408;9.968;2024-02-16T09:42:40;13.07;;;6.63;;
28070;SDS011;15383;48.408;9.968;2024-02-16T09:45:06;11.43;;;6.30;;
28070;SDS011;15383;48.408;9.968;2024-02-16T09:47:33;10.13;;;6.10;;
28070;SDS011;15383;48.408;9.968;2024-02-16T09:50:00;12.73;;;6.80;;
28070;SDS011;15383;48.408;9.968;2024-02-16T09:52:26;11.13;;;6.22;;
28070;SDS011;15383;48.408;9.968;2024-02-16T09:54:52;10.38;;;6.38;;
28070;SDS011;15383;48.408;9.968;2024-02-16T09:57:17;13.00;;;6.38;;
28070;SDS011;15383;48.408;9.968;2024-02-16T09:59:43;12.00;;;7.30;;
28070;SDS011;15383;48.408;9.968;2024-02-16T10:02:09;11.40;;;6.40;;
28070;SDS011;15383;48.408;9.968;2024-02-16T10:04:35;12.45;;;6.35;;
28070;SDS011;15383;48.408;9.968;2024-02-16T10:07:01;15.30;;;7.30;;
28070;SDS011;15383;48.408;9.968;2024-02-16T10:09:27;16.85;;;6.75;;
28070;SDS011;15383;48.408;9.968;2024-02-16T10:11:59;18.20;;;7.55;;
28070;SDS011;15383;48.408;9.968;2024-02-16T10:14:25;17.23;;;7.28;;
28070;SDS011;15383;48.408;9.968;2024-02-16T10:17:04;10.32;;;6.07;;
28070;SDS011;15383;48.408;9.968;2024-02-16T10:19:32;14.68;;;6.85;;
28070;SDS011;15383;48.408;9.968;2024-02-16T10:22:07;13.90;;;7.07;;
28070;SDS011;15383;48.408;9.968;2024-02-16T10:24:34;11.35;;;6.45;;
28070;SDS011;15383;48.408;9.968;2024-02-16T10:26:59;15.25;;;7.75;;
28070;SDS011;15383;48.408;9.968;2024-02-16T10:29:25;14.27;;;6.55;;
28070;SDS011;15383;48.408;9.968;2024-02-16T10:31:52;14.63;;;6.78;;
28070;SDS011;15383;48.408;9.968;2024-02-16T10:34:17;10.80;;;6.63;;
28070;SDS011;15383;48.408;9.968;2024-02-16T10:36:46;15.43;;;7.25;;
28070;SDS011;15383;48.408;9.968;2024-02-16T10:39:11;16.45;;;7.10;;
28070;SDS011;15383;48.408;9.968;2024-02-16T10:41:39;13.27;;;6.60;;
28070;SDS011;15383;48.408;9.968;2024-02-16T10:44:06;13.68;;;7.35;;
28070;SDS011;15383;48.408;9.968;2024-02-16T10:46:32;11.93;;;6.70;;
28070;SDS011;15383;48.408;9.968;2024-02-16T10:48:59;16.30;;;8.30;;
28070;SDS011;15383;48.408;9.968;2024-02-16T10:51:30;10.63;;;6.93;;
28070;SDS011;15383;48.408;9.968;2024-02-16T10:54:00;10.98;;;6.90;;
28070;SDS011;15383;48.408;9.968;2024-02-16T10:56:36;12.25;;;6.95;;
28070;SDS011;15383;48.408;9.968;2024-02-16T10:59:05;12.00;;;6.43;;
28070;SDS011;15383;48.408;9.968;2024-02-16T11:01:42;13.30;;;6.90;;
28070;SDS011;15383;48.408;9.968;2024-02-16T11:04:17;12.73;;;7.22;;
28070;SDS011;15383;48.408;9.968;2024-02-16T11:09:23;11.60;;;6.47;;
28070;SDS011;15383;48.408;9.968;2024-02-16T11:11:59;13.35;;;7.53;;
28070;SDS011;15383;48.408;9.968;2024-02-16T11:14:36;13.43;;;7.40;;
28070;SDS011;15383;48.408;9.968;2024-02-16T11:17:02;13.27;;;6.80;;
28070;SDS011;15383;48.408;9.968;2024-02-16T11:19:33;12.05;;;7.10;;
28070;SDS011;15383;48.408;9.968;2024-02-16T11:22:02;13.88;;;7.22;;
28070;SDS011;15383;48.408;9.968;2024-02-16T11:24:33;15.63;;;6.70;;
28070;SDS011;15383;48.408;9.968;2024-02-16T11:27:07;16.92;;;6.15;;
28070;SDS011;15383;48.408;9.968;2024-02-16T11:29:34;16.13;;;6.25;;
28070;SDS011;15383;48.408;9.968;2024-02-16T11:32:01;8.88;;;5.88;;
28070;SDS011;15383;48.408;9.968;2024-02-16T11:34:27;10.90;;;5.50;;
28070;SDS011;15383;48.408;9.968;2024-02-16T11:36:57;10.63;;;6.18;;
28070;SDS011;15383;48.408;9.968;2024-02-16T11:39:24;13.60;;;6.10;;
28070;SDS011;15383;48.408;9.968;2024-02-16T11:42:08;8.68;;;4.95;;
28070;SDS011;15383;48.408;9.968;2024-02-16T11:44:35;11.05;;;5.63;;
28070;SDS011;15383;48.408;9.968;2024-02-16T11:47:04;14.65;;;5.90;;
28070;SDS011;15383;48.408;9.968;2024-02-16T11:49:33;13.93;;;6.43;;
28070;SDS011;15383;48.408;9.968;2024-02-16T11:51:59;10.23;;;5.47;;
28070;SDS011;15383;48.408;9.968;2024-02-16T11:54:25;10.10;;;5.57;;
28070;SDS011;15383;48.408;9.968;2024-02-16T11:56:51;16.08;;;6.82;;
28070;SDS011;15383;48.408;9.968;2024-02-16T11:59:20;16.42;;;6.07;;
28070;SDS011;15383;48.408;9.968;2024-02-16T12:01:50;9.02;;;6.40;;
28070;SDS011;15383;48.408;9.968;2024-02-16T12:04:29;10.90;;;5.70;;
28070;SDS011;15383;48.408;9.968;2024-02-16T12:06:56;12.65;;;6.07;;
28070;SDS011;15383;48.408;9.968;2024-02-16T12:09:22;10.70;;;5.72;;
28070;SDS011;15383;48.408;9.968;2024-02-16T12:11:49;13.18;;;5.97;;
28070;SDS011;15383;48.408;9.968;2024-02-16T12:14:17;9.27;;;5.53;;
28070;SDS011;15383;48.408;9.968;2024-02-16T12:16:46;10.95;;;5.63;;
28070;SDS011;15383;48.408;9.968;2024-02-16T12:19:16;11.68;;;5.15;;
28070;SDS011;15383;48.408;9.968;2024-02-16T12:21:43;11.48;;;5.38;;
28070;SDS011;15383;48.408;9.968;2024-02-16T12:24:09;15.20;;;6.68;;
28070;SDS011;15383;48.408;9.968;2024-02-16T12:26:35;14.75;;;5.90;;
28070;SDS011;15383;48.408;9.968;2024-02-16T12:29:01;11.50;;;5.85;;
28070;SDS011;15383;48.408;9.968;2024-02-16T12:31:27;8.82;;;6.25;;
28070;SDS011;15383;48.408;9.968;2024-02-16T12:33:54;10.63;;;5.57;;
28070;SDS011;15383;48.408;9.968;2024-02-16T12:36:20;18.15;;;5.82;;
28070;SDS011;15383;48.408;9.968;2024-02-16T12:38:47;11.40;;;5.20;;
28070;SDS011;15383;48.408;9.968;2024-02-16T12:41:14;11.95;;;5.55;;
28070;SDS011;15383;48.408;9.968;2024-02-16T12:43:39;12.55;;;5.88;;
28070;SDS011;15383;48.408;9.968;2024-02-16T12:46:05;10.68;;;5.55;;
28070;SDS011;15383;48.408;9.968;2024-02-16T12:48:30;13.40;;;5.28;;
28070;SDS011;15383;48.408;9.968;2024-02-16T12:50:56;9.10;;;5.28;;
28070;SDS011;15383;48.408;9.968;2024-02-16T12:53:23;14.60;;;5.97;;
28070;SDS011;15383;48.408;9.968;2024-02-16T12:55:50;12.10;;;5.35;;
28070;SDS011;15383;48.408;9.968;2024-02-16T12:58:15;11.75;;;5.78;;
28070;SDS011;15383;48.408;9.968;2024-02-16T13:00:41;11.40;;;5.55;;
28070;SDS011;15383;48.408;9.968;2024-02-16T13:03:07;15.32;;;5.63;;
28070;SDS011;15383;48.408;9.968;2024-02-16T13:05:33;16.70;;;5.82;;
28070;SDS011;15383;48.408;9.968;2024-02-16T13:07:58;11.95;;;5.63;;
28070;SDS011;15383;48.408;9.968;2024-02-16T13:10:24;12.07;;;5.22;;
28070;SDS011;15383;48.408;9.968;2024-02-16T13:12:50;11.73;;;5.28;;
28070;SDS011;15383;48.408;9.968;2024-02-16T13:15:16;13.60;;;4.78;;
28070;SDS011;15383;48.408;9.968;2024-02-16T13:17:41;10.55;;;5.35;;
28070;SDS011;15383;48.408;9.968;2024-02-16T13:20:07;10.68;;;5.35;;
28070;SDS011;15383;48.408;9.968;2024-02-16T13:22:35;11.23;;;5.35;;
28070;SDS011;15383;48.408;9.968;2024-02-16T13:25:04;9.37;;;5.17;;
28070;SDS011;15383;48.408;9.968;2024-02-16T13:27:31;11.02;;;5.13;;
28070;SDS011;15383;48.408;9.968;2024-02-16T13:29:57;8.77;;;4.25;;
28070;SDS011;15383;48.408;9.968;2024-02-16T13:32:22;10.38;;;5.10;;
28070;SDS011;15383;48.408;9.968;2024-02-16T13:34:48;10.30;;;5.38;;
28070;SDS011;15383;48.408;9.968;2024-02-16T13:37:14;9.30;;;4.65;;
28070;SDS011;15383;48.408;9.968;2024-02-16T13:39:40;8.18;;;4.70;;
28070;SDS011;15383;48.408;9.968;2024-02-16T13:42:05;8.45;;;4.50;;
28070;SDS011;15383;48.408;9.968;2024-02-16T13:44:31;9.40;;;5.00;;
28070;SDS011;15383;48.408;9.968;2024-02-16T13:46:57;12.50;;;5.03;;
28070;SDS011;15383;48.408;9.968;2024-02-16T13:49:22;7.03;;;4.25;;
28070;SDS011;15383;48.408;9.968;2024-02-16T13:51:48;6.95;;;4.85;;
28070;SDS011;15383;48.408;9.968;2024-02-16T13:54:14;12.18;;;4.63;;
28070;SDS011;15383;48.408;9.968;2024-02-16T13:56:39;6.47;;;4.05;;
28070;SDS011;15383;48.408;9.968;2024-02-16T13:59:05;7.47;;;4.00;;
28070;SDS011;15383;48.408;9.968;2024-02-16T14:01:32;8.75;;;4.07;;
28070;SDS011;15383;48.408;9.968;2024-02-16T14:03:59;6.18;;;4.07;;
28070;SDS011;15383;48.408;9.968;2024-02-16T14:06:25;7.25;;;4.25;;
28070;SDS011;15383;48.408;9.968;2024-02-16T14:08:50;6.90;;;4.00;;
28070;SDS011;15383;48.408;9.968;2024-02-16T14:11:18;7.53;;;3.95;;
28070;SDS011;15383;48.408;9.968;2024-02-16T14:13:43;5.05;;;3.45;;
28070;SDS011;15383;48.408;9.968;2024-02-16T14:16:09;5.80;;;3.53;;
28070;SDS011;15383;48.408;9.968;2024-02-16T14:18:35;6.95;;;3.45;;
28070;SDS011;15383;48.408;9.968;2024-02-16T14:21:01;5.47;;;3.83;;
28070;SDS011;15383;48.408;9.968;2024-02-16T14:23:29;9.27;;;4.03;;
28070;SDS011;15383;48.408;9.968;2024-02-16T14:25:55;8.75;;;4.00;;
28070;SDS011;15383;48.408;9.968;2024-02-16T14:28:20;7.68;;;3.55;;
28070;SDS011;15383;48.408;9.968;2024-02-16T14:30:46;6.40;;;3.00;;
28070;SDS011;15383;48.408;9.968;2024-02-16T14:33:11;6.55;;;3.00;;
28070;SDS011;15383;48.408;9.968;2024-02-16T14:35:37;4.70;;;2.90;;
28070;SDS011;15383;48.408;9.968;2024-02-16T14:38:03;5.55;;;3.17;;
28070;SDS011;15383;48.408;9.968;2024-02-16T14:40:32;6.60;;;3.28;;
28070;SDS011;15383;48.408;9.968;2024-02-16T14:42:58;5.00;;;2.65;;